sensor_id;sensor_type;location;lat;lon;timestamp;P1;durP1;ratioP1;P2;durP2;ratioP2
57113;SDS011;42994;51.606;9.988;2023-07-22T00:00:42;32.13;;;19.25;;
57113;SDS011;42994;51.606;9.988;2023-07-22T00:03:09;26.00;;;18.45;;
57113;SDS011;42994;51.606;9.988;2023-07-22T00:05:35;25.50;;;19.50;;
57113;SDS011;42994;51.606;9.988;2023-07-22T00:08:02;23.30;;;18.85;;
57113;SDS011;42994;51.606;9.988;2023-07-22T00:10:29;23.40;;;17.92;;
57113;SDS011;42994;51.606;9.988;2023-07-22T00:12:57;28.83;;;17.52;;
57113;SDS011;42994;51.606;9.988;2023-07-22T00:15:24;23.45;;;17.13;;
57113;SDS011;42994;51.606;9.988;2023-07-22T00:17:50;21.33;;;15.95;;
57113;SDS011;42994;51.606;9.988;2023-07-22T00:20:18;22.08;;;17.60;;
57113;SDS011;42994;51.606;9.988;2023-07-22T00:22:45;24.73;;;16.02;;
57113;SDS011;42994;51.606;9.988;2023-07-22T00:25:12;21.40;;;15.80;;
57113;SDS011;42994;51.606;9.988;2023-07-22T00:27:39;23.27;;;16.45;;
57113;SDS011;42994;51.606;9.988;2023-07-22T00:30:08;27.52;;;17.08;;
57113;SDS011;42994;51.606;9.988;2023-07-22T00:32:36;25.27;;;16.58;;
57113;SDS011;42994;51.606;9.988;2023-07-22T00:35:03;24.10;;;15.88;;
57113;SDS011;42994;51.606;9.988;2023-07-22T00:37:30;24.00;;;16.20;;
57113;SDS011;42994;51.606;9.988;2023-07-22T00:39:57;26.90;;;16.30;;
57113;SDS011;42994;51.606;9.988;2023-07-22T00:42:24;24.05;;;15.77;;
57113;SDS011;42994;51.606;9.988;2023-07-22T00:44:51;27.30;;;15.98;;
57113;SDS011;42994;51.606;9.988;2023-07-22T00:47:19;23.33;;;14.98;;
57113;SDS011;42994;51.606;9.988;2023-07-22T00:49:47;30.75;;;16.55;;
57113;SDS011;42994;51.606;9.988;2023-07-22T00:52:15;23.45;;;14.57;;
57113;SDS011;42994;51.606;9.988;2023-07-22T00:54:42;22.77;;;15.55;;
57113;SDS011;42994;51.606;9.988;2023-07-22T00:57:09;21.42;;;14.40;;
57113;SDS011;42994;51.606;9.988;2023-07-22T00:59:37;26.80;;;14.90;;
57113;SDS011;42994;51.606;9.988;2023-07-22T01:02:05;21.73;;;14.20;;
57113;SDS011;42994;51.606;9.988;2023-07-22T01:04:34;23.45;;;15.38;;
57113;SDS011;42994;51.606;9.988;2023-07-22T01:07:00;26.13;;;14.02;;
57113;SDS011;42994;51.606;9.988;2023-07-22T01:09:33;26.50;;;14.52;;
57113;SDS011;42994;51.606;9.988;2023-07-22T01:12:00;19.07;;;13.83;;
57113;SDS011;42994;51.606;9.988;2023-07-22T01:14:27;26.77;;;13.48;;
57113;SDS011;42994;51.606;9.988;2023-07-22T01:16:54;23.95;;;14.07;;
57113;SDS011;42994;51.606;9.988;2023-07-22T01:19:21;22.95;;;13.15;;
57113;SDS011;42994;51.606;9.988;2023-07-22T01:21:49;22.40;;;12.85;;
57113;SDS011;42994;51.606;9.988;2023-07-22T01:24:17;23.75;;;13.02;;
57113;SDS011;42994;51.606;9.988;2023-07-22T01:26:45;21.63;;;13.20;;
57113;SDS011;42994;51.606;9.988;2023-07-22T01:29:12;24.48;;;14.43;;
57113;SDS011;42994;51.606;9.988;2023-07-22T01:31:40;29.65;;;14.52;;
57113;SDS011;42994;51.606;9.988;2023-07-22T01:34:07;30.80;;;14.13;;
57113;SDS011;42994;51.606;9.988;2023-07-22T01:36:33;25.80;;;14.38;;
57113;SDS011;42994;51.606;9.988;2023-07-22T01:39:00;22.90;;;14.80;;
57113;SDS011;42994;51.606;9.988;2023-07-22T01:41:28;25.45;;;14.55;;
57113;SDS011;42994;51.606;9.988;2023-07-22T01:43:55;27.38;;;14.70;;
57113;SDS011;42994;51.606;9.988;2023-07-22T01:46:21;19.33;;;14.45;;
57113;SDS011;42994;51.606;9.988;2023-07-22T01:48:48;20.83;;;13.77;;
57113;SDS011;42994;51.606;9.988;2023-07-22T01:51:15;27.48;;;14.43;;
57113;SDS011;42994;51.606;9.988;2023-07-22T01:53:41;24.67;;;14.38;;
57113;SDS011;42994;51.606;9.988;2023-07-22T01:56:08;23.63;;;13.75;;
57113;SDS011;42994;51.606;9.988;2023-07-22T01:58:36;24.67;;;13.07;;
57113;SDS011;42994;51.606;9.988;2023-07-22T02:01:02;22.52;;;13.70;;
57113;SDS011;42994;51.606;9.988;2023-07-22T02:03:29;24.52;;;14.40;;
57113;SDS011;42994;51.606;9.988;2023-07-22T02:06:00;21.17;;;13.98;;
57113;SDS011;42994;51.606;9.988;2023-07-22T02:08:28;22.42;;;12.48;;
57113;SDS011;42994;51.606;9.988;2023-07-22T02:10:54;19.98;;;13.20;;
57113;SDS011;42994;51.606;9.988;2023-07-22T02:13:21;27.50;;;12.98;;
57113;SDS011;42994;51.606;9.988;2023-07-22T02:15:49;20.90;;;12.40;;
57113;SDS011;42994;51.606;9.988;2023-07-22T02:18:16;18.63;;;12.45;;
57113;SDS011;42994;51.606;9.988;2023-07-22T02:20:42;25.25;;;13.80;;
57113;SDS011;42994;51.606;9.988;2023-07-22T02:23:09;24.75;;;14.20;;
57113;SDS011;42994;51.606;9.988;2023-07-22T02:25:36;20.63;;;13.20;;
57113;SDS011;42994;51.606;9.988;2023-07-22T02:28:02;24.95;;;13.27;;
57113;SDS011;42994;51.606;9.988;2023-07-22T02:30:29;21.20;;;11.80;;
57113;SDS011;42994;51.606;9.988;2023-07-22T02:32:57;23.58;;;13.48;;
57113;SDS011;42994;51.606;9.988;2023-07-22T02:35:24;29.85;;;14.05;;
57113;SDS011;42994;51.606;9.988;2023-07-22T02:37:51;26.45;;;13.85;;
57113;SDS011;42994;51.606;9.988;2023-07-22T02:40:17;24.25;;;13.88;;
57113;SDS011;42994;51.606;9.988;2023-07-22T02:42:44;26.35;;;14.65;;
57113;SDS011;42994;51.606;9.988;2023-07-22T02:45:10;25.60;;;15.00;;
57113;SDS011;42994;51.606;9.988;2023-07-22T02:47:37;25.00;;;13.93;;
57113;SDS011;42994;51.606;9.988;2023-07-22T02:50:06;28.70;;;14.38;;
57113;SDS011;42994;51.606;9.988;2023-07-22T02:52:34;26.20;;;14.30;;
57113;SDS011;42994;51.606;9.988;2023-07-22T02:55:05;28.98;;;15.88;;
57113;SDS011;42994;51.606;9.988;2023-07-22T02:59:59;27.00;;;14.63;;
57113;SDS011;42994;51.606;9.988;2023-07-22T03:02:32;25.30;;;14.00;;
57113;SDS011;42994;51.606;9.988;2023-07-22T03:04:58;27.17;;;14.30;;
57113;SDS011;42994;51.606;9.988;2023-07-22T03:07:26;30.48;;;13.80;;
57113;SDS011;42994;51.606;9.988;2023-07-22T03:09:53;24.98;;;13.88;;
57113;SDS011;42994;51.606;9.988;2023-07-22T03:12:19;24.63;;;13.40;;
57113;SDS011;42994;51.606;9.988;2023-07-22T03:14:46;27.30;;;13.80;;
57113;SDS011;42994;51.606;9.988;2023-07-22T03:17:14;28.20;;;13.93;;
57113;SDS011;42994;51.606;9.988;2023-07-22T03:19:42;30.05;;;15.93;;
57113;SDS011;42994;51.606;9.988;2023-07-22T03:22:08;29.02;;;14.95;;
57113;SDS011;42994;51.606;9.988;2023-07-22T03:24:37;31.65;;;15.20;;
57113;SDS011;42994;51.606;9.988;2023-07-22T03:27:04;27.75;;;15.60;;
57113;SDS011;42994;51.606;9.988;2023-07-22T03:29:31;30.27;;;16.55;;
57113;SDS011;42994;51.606;9.988;2023-07-22T03:31:58;26.63;;;15.80;;
57113;SDS011;42994;51.606;9.988;2023-07-22T03:34:25;25.88;;;15.20;;
57113;SDS011;42994;51.606;9.988;2023-07-22T03:36:52;28.98;;;15.98;;
57113;SDS011;42994;51.606;9.988;2023-07-22T03:39:18;30.25;;;15.75;;
57113;SDS011;42994;51.606;9.988;2023-07-22T03:41:46;30.45;;;15.45;;
57113;SDS011;42994;51.606;9.988;2023-07-22T03:44:13;27.73;;;15.15;;
57113;SDS011;42994;51.606;9.988;2023-07-22T03:46:40;28.77;;;16.20;;
57113;SDS011;42994;51.606;9.988;2023-07-22T03:49:07;28.30;;;15.43;;
57113;SDS011;42994;51.606;9.988;2023-07-22T03:51:33;26.40;;;15.60;;
57113;SDS011;42994;51.606;9.988;2023-07-22T03:54:00;24.58;;;14.15;;
57113;SDS011;42994;51.606;9.988;2023-07-22T03:56:27;28.60;;;14.98;;
57113;SDS011;42994;51.606;9.988;2023-07-22T03:58:55;35.88;;;15.23;;
57113;SDS011;42994;51.606;9.988;2023-07-22T04:01:21;33.13;;;15.63;;
57113;SDS011;42994;51.606;9.988;2023-07-22T04:03:48;32.22;;;15.02;;
57113;SDS011;42994;51.606;9.988;2023-07-22T04:06:15;23.05;;;13.27;;
57113;SDS011;42994;51.606;9.988;2023-07-22T04:08:41;26.65;;;14.27;;
57113;SDS011;42994;51.606;9.988;2023-07-22T04:11:08;25.60;;;14.07;;
57113;SDS011;42994;51.606;9.988;2023-07-22T04:13:34;21.85;;;12.80;;
57113;SDS011;42994;51.606;9.988;2023-07-22T04:16:03;20.20;;;12.68;;
57113;SDS011;42994;51.606;9.988;2023-07-22T04:18:30;23.70;;;13.32;;
57113;SDS011;42994;51.606;9.988;2023-07-22T04:20:59;28.80;;;14.43;;
57113;SDS011;42994;51.606;9.988;2023-07-22T04:23:26;24.42;;;12.32;;
57113;SDS011;42994;51.606;9.988;2023-07-22T04:25:53;20.50;;;12.40;;
57113;SDS011;42994;51.606;9.988;2023-07-22T04:28:20;20.55;;;12.40;;
57113;SDS011;42994;51.606;9.988;2023-07-22T04:30:54;21.25;;;12.88;;
57113;SDS011;42994;51.606;9.988;2023-07-22T04:33:24;21.55;;;12.45;;
57113;SDS011;42994;51.606;9.988;2023-07-22T04:35:52;23.52;;;13.55;;
57113;SDS011;42994;51.606;9.988;2023-07-22T04:38:20;27.33;;;13.80;;
57113;SDS011;42994;51.606;9.988;2023-07-22T04:40:46;24.00;;;11.00;;
57113;SDS011;42994;51.606;9.988;2023-07-22T04:43:13;26.75;;;12.13;;
57113;SDS011;42994;51.606;9.988;2023-07-22T04:45:39;21.60;;;11.52;;
57113;SDS011;42994;51.606;9.988;2023-07-22T04:48:06;26.42;;;11.13;;
57113;SDS011;42994;51.606;9.988;2023-07-22T04:50:34;19.13;;;11.77;;
57113;SDS011;42994;51.606;9.988;2023-07-22T04:53:01;19.38;;;11.32;;
57113;SDS011;42994;51.606;9.988;2023-07-22T04:55:27;24.55;;;13.23;;
57113;SDS011;42994;51.606;9.988;2023-07-22T04:57:55;22.95;;;11.65;;
57113;SDS011;42994;51.606;9.988;2023-07-22T05:00:22;20.35;;;12.40;;
57113;SDS011;42994;51.606;9.988;2023-07-22T05:02:48;19.77;;;11.27;;
57113;SDS011;42994;51.606;9.988;2023-07-22T05:05:17;23.55;;;11.48;;
57113;SDS011;42994;51.606;9.988;2023-07-22T05:07:45;16.58;;;10.85;;
57113;SDS011;42994;51.606;9.988;2023-07-22T05:10:13;20.42;;;10.90;;
57113;SDS011;42994;51.606;9.988;2023-07-22T05:12:40;24.10;;;10.48;;
57113;SDS011;42994;51.606;9.988;2023-07-22T05:15:09;19.38;;;11.30;;
57113;SDS011;42994;51.606;9.988;2023-07-22T05:17:36;18.63;;;11.40;;
57113;SDS011;42994;51.606;9.988;2023-07-22T05:20:03;18.85;;;11.10;;
57113;SDS011;42994;51.606;9.988;2023-07-22T05:22:31;18.35;;;10.68;;
57113;SDS011;42994;51.606;9.988;2023-07-22T05:24:59;19.15;;;11.70;;
57113;SDS011;42994;51.606;9.988;2023-07-22T05:27:26;15.88;;;11.25;;
57113;SDS011;42994;51.606;9.988;2023-07-22T05:29:53;20.75;;;12.23;;
57113;SDS011;42994;51.606;9.988;2023-07-22T05:32:19;18.67;;;10.55;;
57113;SDS011;42994;51.606;9.988;2023-07-22T05:34:46;17.65;;;11.25;;
57113;SDS011;42994;51.606;9.988;2023-07-22T05:37:13;18.33;;;11.52;;
57113;SDS011;42994;51.606;9.988;2023-07-22T05:39:39;16.48;;;10.95;;
57113;SDS011;42994;51.606;9.988;2023-07-22T05:42:07;14.90;;;10.68;;
57113;SDS011;42994;51.606;9.988;2023-07-22T05:44:34;18.10;;;10.15;;
57113;SDS011;42994;51.606;9.988;2023-07-22T05:47:00;16.73;;;10.25;;
57113;SDS011;42994;51.606;9.988;2023-07-22T05:49:27;17.17;;;10.18;;
57113;SDS011;42994;51.606;9.988;2023-07-22T05:51:54;17.08;;;10.00;;
57113;SDS011;42994;51.606;9.988;2023-07-22T05:54:20;15.98;;;9.73;;
57113;SDS011;42994;51.606;9.988;2023-07-22T05:56:47;18.23;;;10.10;;
57113;SDS011;42994;51.606;9.988;2023-07-22T05:59:15;14.98;;;9.25;;
57113;SDS011;42994;51.606;9.988;2023-07-22T06:01:42;12.38;;;9.32;;
57113;SDS011;42994;51.606;9.988;2023-07-22T06:04:08;17.98;;;8.45;;
57113;SDS011;42994;51.606;9.988;2023-07-22T06:06:35;14.05;;;9.02;;
57113;SDS011;42994;51.606;9.988;2023-07-22T06:09:02;15.27;;;8.63;;
57113;SDS011;42994;51.606;9.988;2023-07-22T06:11:29;11.65;;;8.88;;
57113;SDS011;42994;51.606;9.988;2023-07-22T06:13:56;15.68;;;8.90;;
57113;SDS011;42994;51.606;9.988;2023-07-22T06:16:24;12.43;;;8.50;;
57113;SDS011;42994;51.606;9.988;2023-07-22T06:18:51;17.20;;;9.25;;
57113;SDS011;42994;51.606;9.988;2023-07-22T06:21:17;14.43;;;9.75;;
57113;SDS011;42994;51.606;9.988;2023-07-22T06:23:44;14.20;;;8.75;;
57113;SDS011;42994;51.606;9.988;2023-07-22T06:26:11;16.45;;;9.30;;
57113;SDS011;42994;51.606;9.988;2023-07-22T06:28:38;13.65;;;8.63;;
57113;SDS011;42994;51.606;9.988;2023-07-22T06:31:04;12.25;;;8.23;;
57113;SDS011;42994;51.606;9.988;2023-07-22T06:33:32;17.27;;;8.93;;
57113;SDS011;42994;51.606;9.988;2023-07-22T06:35:59;17.23;;;8.23;;
57113;SDS011;42994;51.606;9.988;2023-07-22T06:38:25;12.68;;;8.80;;
57113;SDS011;42994;51.606;9.988;2023-07-22T06:40:52;15.32;;;8.55;;
57113;SDS011;42994;51.606;9.988;2023-07-22T06:43:19;15.63;;;8.70;;
57113;SDS011;42994;51.606;9.988;2023-07-22T06:45:45;14.15;;;8.15;;
57113;SDS011;42994;51.606;9.988;2023-07-22T06:48:12;10.43;;;7.55;;
57113;SDS011;42994;51.606;9.988;2023-07-22T06:50:40;14.80;;;8.07;;
57113;SDS011;42994;51.606;9.988;2023-07-22T06:53:13;14.25;;;8.35;;
57113;SDS011;42994;51.606;9.988;2023-07-22T06:55:40;13.75;;;9.18;;
57113;SDS011;42994;51.606;9.988;2023-07-22T06:58:13;14.27;;;8.20;;
57113;SDS011;42994;51.606;9.988;2023-07-22T07:00:40;15.43;;;8.43;;
57113;SDS011;42994;51.606;9.988;2023-07-22T07:03:07;13.82;;;8.05;;
57113;SDS011;42994;51.606;9.988;2023-07-22T07:05:33;10.75;;;7.97;;
57113;SDS011;42994;51.606;9.988;2023-07-22T07:08:02;12.65;;;8.23;;
57113;SDS011;42994;51.606;9.988;2023-07-22T07:10:29;10.38;;;7.45;;
57113;SDS011;42994;51.606;9.988;2023-07-22T07:12:56;13.75;;;8.50;;
57113;SDS011;42994;51.606;9.988;2023-07-22T07:15:23;11.77;;;8.02;;
57113;SDS011;42994;51.606;9.988;2023-07-22T07:17:50;14.32;;;9.43;;
57113;SDS011;42994;51.606;9.988;2023-07-22T07:20:16;11.45;;;7.95;;
57113;SDS011;42994;51.606;9.988;2023-07-22T07:22:43;11.43;;;7.65;;
57113;SDS011;42994;51.606;9.988;2023-07-22T07:25:11;9.60;;;8.00;;
57113;SDS011;42994;51.606;9.988;2023-07-22T07:27:40;10.60;;;7.57;;
57113;SDS011;42994;51.606;9.988;2023-07-22T07:30:07;14.00;;;7.60;;
57113;SDS011;42994;51.606;9.988;2023-07-22T07:32:35;10.40;;;8.50;;
57113;SDS011;42994;51.606;9.988;2023-07-22T07:35:02;15.20;;;8.52;;
57113;SDS011;42994;51.606;9.988;2023-07-22T07:37:31;11.32;;;7.75;;
57113;SDS011;42994;51.606;9.988;2023-07-22T07:39:58;10.70;;;7.18;;
57113;SDS011;42994;51.606;9.988;2023-07-22T07:42:26;12.32;;;7.88;;
57113;SDS011;42994;51.606;9.988;2023-07-22T07:44:53;12.77;;;7.25;;
57113;SDS011;42994;51.606;9.988;2023-07-22T07:47:20;11.35;;;7.63;;
57113;SDS011;42994;51.606;9.988;2023-07-22T07:49:46;14.15;;;8.38;;
57113;SDS011;42994;51.606;9.988;2023-07-22T07:52:14;15.65;;;8.25;;
57113;SDS011;42994;51.606;9.988;2023-07-22T07:54:40;11.23;;;7.85;;
57113;SDS011;42994;51.606;9.988;2023-07-22T07:57:07;12.30;;;7.93;;
57113;SDS011;42994;51.606;9.988;2023-07-22T07:59:35;11.15;;;7.57;;
57113;SDS011;42994;51.606;9.988;2023-07-22T08:02:02;11.57;;;7.70;;
57113;SDS011;42994;51.606;9.988;2023-07-22T08:04:33;10.02;;;7.10;;
57113;SDS011;42994;51.606;9.988;2023-07-22T08:07:00;11.95;;;7.85;;
57113;SDS011;42994;51.606;9.988;2023-07-22T08:09:27;11.50;;;7.25;;
57113;SDS011;42994;51.606;9.988;2023-07-22T08:11:54;12.05;;;8.13;;
57113;SDS011;42994;51.606;9.988;2023-07-22T08:14:20;11.05;;;8.00;;
57113;SDS011;42994;51.606;9.988;2023-07-22T08:16:49;15.57;;;7.38;;
57113;SDS011;42994;51.606;9.988;2023-07-22T08:19:15;12.32;;;7.90;;
57113;SDS011;42994;51.606;9.988;2023-07-22T08:21:42;12.10;;;8.00;;
57113;SDS011;42994;51.606;9.988;2023-07-22T08:24:08;13.60;;;7.40;;
57113;SDS011;42994;51.606;9.988;2023-07-22T08:26:35;12.23;;;7.30;;
57113;SDS011;42994;51.606;9.988;2023-07-22T08:29:02;11.75;;;8.40;;
57113;SDS011;42994;51.606;9.988;2023-07-22T08:31:28;12.98;;;7.32;;
57113;SDS011;42994;51.606;9.988;2023-07-22T08:33:57;11.70;;;8.57;;
57113;SDS011;42994;51.606;9.988;2023-07-22T08:36:23;13.57;;;8.35;;
57113;SDS011;42994;51.606;9.988;2023-07-22T08:38:50;14.70;;;8.13;;
57113;SDS011;42994;51.606;9.988;2023-07-22T08:41:18;11.32;;;8.32;;
57113;SDS011;42994;51.606;9.988;2023-07-22T08:43:47;11.38;;;8.15;;
57113;SDS011;42994;51.606;9.988;2023-07-22T08:46:15;10.52;;;8.85;;
57113;SDS011;42994;51.606;9.988;2023-07-22T08:48:46;11.75;;;8.45;;
57113;SDS011;42994;51.606;9.988;2023-07-22T08:51:15;13.23;;;7.95;;
57113;SDS011;42994;51.606;9.988;2023-07-22T08:53:44;13.63;;;8.20;;
57113;SDS011;42994;51.606;9.988;2023-07-22T08:56:11;10.77;;;7.45;;
57113;SDS011;42994;51.606;9.988;2023-07-22T08:58:38;10.25;;;8.25;;
57113;SDS011;42994;51.606;9.988;2023-07-22T09:01:05;14.48;;;8.07;;
57113;SDS011;42994;51.606;9.988;2023-07-22T09:03:31;13.00;;;8.00;;
57113;SDS011;42994;51.606;9.988;2023-07-22T09:05:58;11.02;;;8.57;;
57113;SDS011;42994;51.606;9.988;2023-07-22T09:08:27;9.98;;;7.72;;
57113;SDS011;42994;51.606;9.988;2023-07-22T09:10:53;10.90;;;8.02;;
57113;SDS011;42994;51.606;9.988;2023-07-22T09:13:20;14.80;;;8.35;;
57113;SDS011;42994;51.606;9.988;2023-07-22T09:15:48;11.07;;;9.05;;
57113;SDS011;42994;51.606;9.988;2023-07-22T09:18:16;10.80;;;7.78;;
57113;SDS011;42994;51.606;9.988;2023-07-22T09:20:42;11.35;;;7.50;;
57113;SDS011;42994;51.606;9.988;2023-07-22T09:23:09;11.13;;;7.75;;
57113;SDS011;42994;51.606;9.988;2023-07-22T09:25:39;9.52;;;7.13;;
57113;SDS011;42994;51.606;9.988;2023-07-22T09:28:06;10.20;;;8.13;;
57113;SDS011;42994;51.606;9.988;2023-07-22T09:30:34;15.77;;;8.95;;
57113;SDS011;42994;51.606;9.988;2023-07-22T09:33:03;13.93;;;9.32;;
57113;SDS011;42994;51.606;9.988;2023-07-22T09:35:35;12.05;;;8.52;;
57113;SDS011;42994;51.606;9.988;2023-07-22T09:38:10;12.88;;;9.18;;
57113;SDS011;42994;51.606;9.988;2023-07-22T09:40:40;17.33;;;8.43;;
57113;SDS011;42994;51.606;9.988;2023-07-22T09:43:09;13.23;;;7.78;;
57113;SDS011;42994;51.606;9.988;2023-07-22T09:45:37;10.52;;;8.45;;
57113;SDS011;42994;51.606;9.988;2023-07-22T09:48:04;11.05;;;8.57;;
57113;SDS011;42994;51.606;9.988;2023-07-22T09:50:31;10.48;;;8.35;;
57113;SDS011;42994;51.606;9.988;2023-07-22T09:52:58;13.63;;;8.27;;
57113;SDS011;42994;51.606;9.988;2023-07-22T09:55:27;14.82;;;8.35;;
57113;SDS011;42994;51.606;9.988;2023-07-22T09:57:56;10.38;;;8.10;;
57113;SDS011;42994;51.606;9.988;2023-07-22T10:00:25;11.65;;;8.57;;
57113;SDS011;42994;51.606;9.988;2023-07-22T10:02:56;12.35;;;7.45;;
57113;SDS011;42994;51.606;9.988;2023-07-22T10:05:24;12.35;;;7.10;;
57113;SDS011;42994;51.606;9.988;2023-07-22T10:07:52;10.45;;;7.00;;
57113;SDS011;42994;51.606;9.988;2023-07-22T10:10:20;9.90;;;7.05;;
57113;SDS011;42994;51.606;9.988;2023-07-22T10:12:49;11.48;;;7.57;;
57113;SDS011;42994;51.606;9.988;2023-07-22T10:15:19;8.60;;;7.07;;
57113;SDS011;42994;51.606;9.988;2023-07-22T10:17:46;11.00;;;6.88;;
57113;SDS011;42994;51.606;9.988;2023-07-22T10:20:13;9.25;;;7.57;;
57113;SDS011;42994;51.606;9.988;2023-07-22T10:22:41;9.10;;;7.47;;
57113;SDS011;42994;51.606;9.988;2023-07-22T10:25:10;10.70;;;7.35;;
57113;SDS011;42994;51.606;9.988;2023-07-22T10:27:38;7.70;;;6.90;;
57113;SDS011;42994;51.606;9.988;2023-07-22T10:30:07;10.65;;;7.07;;
57113;SDS011;42994;51.606;9.988;2023-07-22T10:32:38;8.85;;;6.90;;
57113;SDS011;42994;51.606;9.988;2023-07-22T10:35:09;12.02;;;7.45;;
57113;SDS011;42994;51.606;9.988;2023-07-22T10:37:37;11.80;;;6.70;;
57113;SDS011;42994;51.606;9.988;2023-07-22T10:40:22;10.55;;;6.95;;
57113;SDS011;42994;51.606;9.988;2023-07-22T10:43:00;10.95;;;7.10;;
57113;SDS011;42994;51.606;9.988;2023-07-22T10:45:31;9.38;;;7.65;;
57113;SDS011;42994;51.606;9.988;2023-07-22T10:48:05;11.88;;;7.00;;
57113;SDS011;42994;51.606;9.988;2023-07-22T10:50:39;12.18;;;6.60;;
57113;SDS011;42994;51.606;9.988;2023-07-22T10:53:09;9.20;;;6.78;;
57113;SDS011;42994;51.606;9.988;2023-07-22T10:58:56;9.38;;;6.65;;
57113;SDS011;42994;51.606;9.988;2023-07-22T11:01:30;8.13;;;6.78;;
57113;SDS011;42994;51.606;9.988;2023-07-22T11:04:06;8.40;;;6.57;;
57113;SDS011;42994;51.606;9.988;2023-07-22T11:06:54;8.25;;;6.30;;
57113;SDS011;42994;51.606;9.988;2023-07-22T11:09:34;9.23;;;6.88;;
57113;SDS011;42994;51.606;9.988;2023-07-22T11:12:02;7.80;;;6.25;;
57113;SDS011;42994;51.606;9.988;2023-07-22T11:14:30;9.30;;;6.88;;
57113;SDS011;42994;51.606;9.988;2023-07-22T11:16:59;10.43;;;6.82;;
57113;SDS011;42994;51.606;9.988;2023-07-22T11:19:30;6.68;;;5.97;;
57113;SDS011;42994;51.606;9.988;2023-07-22T11:21:57;10.95;;;7.00;;
57113;SDS011;42994;51.606;9.988;2023-07-22T11:24:24;7.18;;;6.32;;
57113;SDS011;42994;51.606;9.988;2023-07-22T11:26:51;8.55;;;6.40;;
57113;SDS011;42994;51.606;9.988;2023-07-22T11:29:18;8.60;;;6.07;;
57113;SDS011;42994;51.606;9.988;2023-07-22T11:31:46;9.50;;;6.90;;
57113;SDS011;42994;51.606;9.988;2023-07-22T11:34:14;6.00;;;5.40;;
57113;SDS011;42994;51.606;9.988;2023-07-22T11:36:43;7.88;;;6.07;;
57113;SDS011;42994;51.606;9.988;2023-07-22T11:39:11;7.60;;;6.22;;
57113;SDS011;42994;51.606;9.988;2023-07-22T11:41:38;7.13;;;6.28;;
57113;SDS011;42994;51.606;9.988;2023-07-22T11:44:07;11.95;;;6.53;;
57113;SDS011;42994;51.606;9.988;2023-07-22T11:46:35;6.45;;;5.60;;
57113;SDS011;42994;51.606;9.988;2023-07-22T11:49:02;8.88;;;5.97;;
57113;SDS011;42994;51.606;9.988;2023-07-22T11:51:31;8.15;;;5.93;;
57113;SDS011;42994;51.606;9.988;2023-07-22T11:54:00;6.90;;;6.28;;
57113;SDS011;42994;51.606;9.988;2023-07-22T11:56:27;7.60;;;6.00;;
57113;SDS011;42994;51.606;9.988;2023-07-22T11:58:55;7.55;;;5.97;;
57113;SDS011;42994;51.606;9.988;2023-07-22T12:01:23;7.07;;;5.43;;
57113;SDS011;42994;51.606;9.988;2023-07-22T12:03:55;8.63;;;5.88;;
57113;SDS011;42994;51.606;9.988;2023-07-22T12:06:24;11.27;;;6.10;;
57113;SDS011;42994;51.606;9.988;2023-07-22T12:08:52;6.03;;;5.40;;
57113;SDS011;42994;51.606;9.988;2023-07-22T12:11:20;7.60;;;5.55;;
57113;SDS011;42994;51.606;9.988;2023-07-22T12:13:49;7.95;;;5.55;;
57113;SDS011;42994;51.606;9.988;2023-07-22T12:16:30;5.88;;;5.28;;
57113;SDS011;42994;51.606;9.988;2023-07-22T12:18:56;5.88;;;5.28;;
57113;SDS011;42994;51.606;9.988;2023-07-22T12:21:23;7.25;;;5.38;;
57113;SDS011;42994;51.606;9.988;2023-07-22T12:23:50;5.15;;;4.63;;
57113;SDS011;42994;51.606;9.988;2023-07-22T12:26:20;7.00;;;5.63;;
57113;SDS011;42994;51.606;9.988;2023-07-22T12:28:47;6.22;;;5.25;;
57113;SDS011;42994;51.606;9.988;2023-07-22T12:31:14;7.45;;;5.07;;
57113;SDS011;42994;51.606;9.988;2023-07-22T12:33:41;6.88;;;5.68;;
57113;SDS011;42994;51.606;9.988;2023-07-22T12:36:08;7.32;;;5.28;;
57113;SDS011;42994;51.606;9.988;2023-07-22T12:38:35;6.07;;;5.47;;
57113;SDS011;42994;51.606;9.988;2023-07-22T12:41:01;5.20;;;4.70;;
57113;SDS011;42994;51.606;9.988;2023-07-22T12:43:29;8.27;;;5.03;;
57113;SDS011;42994;51.606;9.988;2023-07-22T12:45:56;6.68;;;5.25;;
57113;SDS011;42994;51.606;9.988;2023-07-22T12:48:23;5.32;;;4.82;;
57113;SDS011;42994;51.606;9.988;2023-07-22T12:50:50;5.95;;;5.28;;
57113;SDS011;42994;51.606;9.988;2023-07-22T12:53:17;7.03;;;4.38;;
57113;SDS011;42994;51.606;9.988;2023-07-22T12:55:43;5.63;;;4.53;;
57113;SDS011;42994;51.606;9.988;2023-07-22T12:58:10;7.30;;;4.63;;
57113;SDS011;42994;51.606;9.988;2023-07-22T13:00:38;6.10;;;4.80;;
57113;SDS011;42994;51.606;9.988;2023-07-22T13:03:05;6.07;;;4.68;;
57113;SDS011;42994;51.606;9.988;2023-07-22T13:05:31;5.70;;;4.75;;
57113;SDS011;42994;51.606;9.988;2023-07-22T13:07:58;6.18;;;4.47;;
57113;SDS011;42994;51.606;9.988;2023-07-22T13:10:32;6.50;;;4.50;;
57113;SDS011;42994;51.606;9.988;2023-07-22T13:13:02;5.05;;;4.40;;
57113;SDS011;42994;51.606;9.988;2023-07-22T13:15:29;6.80;;;4.80;;
57113;SDS011;42994;51.606;9.988;2023-07-22T13:17:57;5.25;;;4.03;;
57113;SDS011;42994;51.606;9.988;2023-07-22T13:20:24;7.50;;;4.13;;
57113;SDS011;42994;51.606;9.988;2023-07-22T13:22:51;5.90;;;4.45;;
57113;SDS011;42994;51.606;9.988;2023-07-22T13:25:17;4.68;;;4.22;;
57113;SDS011;42994;51.606;9.988;2023-07-22T13:27:44;4.43;;;4.03;;
57113;SDS011;42994;51.606;9.988;2023-07-22T13:30:11;6.05;;;4.75;;
57113;SDS011;42994;51.606;9.988;2023-07-22T13:32:38;5.45;;;4.18;;
57113;SDS011;42994;51.606;9.988;2023-07-22T13:35:07;6.28;;;4.47;;
57113;SDS011;42994;51.606;9.988;2023-07-22T13:37:34;5.40;;;4.30;;
57113;SDS011;42994;51.606;9.988;2023-07-22T13:40:00;5.15;;;4.35;;
57113;SDS011;42994;51.606;9.988;2023-07-22T13:42:30;4.88;;;4.15;;
57113;SDS011;42994;51.606;9.988;2023-07-22T13:44:56;5.45;;;3.85;;
57113;SDS011;42994;51.606;9.988;2023-07-22T13:47:23;6.53;;;3.97;;
57113;SDS011;42994;51.606;9.988;2023-07-22T13:49:49;4.55;;;4.15;;
57113;SDS011;42994;51.606;9.988;2023-07-22T13:52:17;4.55;;;4.07;;
57113;SDS011;42994;51.606;9.988;2023-07-22T13:54:44;6.95;;;4.05;;
57113;SDS011;42994;51.606;9.988;2023-07-22T13:57:11;5.95;;;4.15;;
57113;SDS011;42994;51.606;9.988;2023-07-22T13:59:38;5.95;;;4.47;;
57113;SDS011;42994;51.606;9.988;2023-07-22T14:02:05;4.32;;;3.92;;
57113;SDS011;42994;51.606;9.988;2023-07-22T14:04:32;6.07;;;4.32;;
57113;SDS011;42994;51.606;9.988;2023-07-22T14:06:58;5.03;;;3.42;;
57113;SDS011;42994;51.606;9.988;2023-07-22T14:09:26;4.65;;;3.58;;
57113;SDS011;42994;51.606;9.988;2023-07-22T14:11:53;4.85;;;3.58;;
57113;SDS011;42994;51.606;9.988;2023-07-22T14:14:19;4.60;;;3.80;;
57113;SDS011;42994;51.606;9.988;2023-07-22T14:16:53;4.03;;;3.63;;
57113;SDS011;42994;51.606;9.988;2023-07-22T14:19:20;4.18;;;3.75;;
57113;SDS011;42994;51.606;9.988;2023-07-22T14:21:46;3.85;;;3.55;;
57113;SDS011;42994;51.606;9.988;2023-07-22T14:24:13;7.30;;;4.22;;
57113;SDS011;42994;51.606;9.988;2023-07-22T14:26:41;5.18;;;3.92;;
57113;SDS011;42994;51.606;9.988;2023-07-22T14:29:08;4.00;;;3.50;;
57113;SDS011;42994;51.606;9.988;2023-07-22T14:31:34;4.20;;;3.80;;
57113;SDS011;42994;51.606;9.988;2023-07-22T14:34:01;5.90;;;4.03;;
57113;SDS011;42994;51.606;9.988;2023-07-22T14:36:27;4.80;;;4.28;;
57113;SDS011;42994;51.606;9.988;2023-07-22T14:38:54;4.63;;;3.78;;
57113;SDS011;42994;51.606;9.988;2023-07-22T14:41:21;5.82;;;3.65;;